Time;durP1;ratioP1;P1;durP2;ratioP2;P2;SDS_P1;SDS_P2;PMS_P1;PMS_P2;Temp;Humidity;BMP_temperature;BMP_pressure;BME280_temperature;BME280_humidity;BME280_pressure;Samples;Min_cycle;Max_cycle;Signal;HPM_P1;HPM_P2
2022/07/03 00:00:34;;;;;;;9.57;6.80;;;16.30;99.90;;;;;;5093939;28;20834;-66
2022/07/03 00:03:01;;;;;;;7.40;6.80;;;16.20;99.90;;;;;;5091344;28;20905;-67
2022/07/03 00:05:28;;;;;;;7.63;7.00;;;16.20;99.90;;;;;;5088845;28;20891;-66
2022/07/03 00:07:55;;;;;;;7.03;6.37;;;16.20;99.90;;;;;;5092970;28;20656;-67
2022/07/03 00:10:23;;;;;;;7.50;6.73;;;16.10;99.90;;;;;;5092872;28;20842;-67
2022/07/03 00:12:50;;;;;;;6.80;6.40;;;16.10;99.90;;;;;;5088554;28;20478;-67
2022/07/03 00:15:17;;;;;;;7.20;5.90;;;16.10;99.90;;;;;;5091710;28;20837;-66
2022/07/03 00:17:43;;;;;;;6.90;6.40;;;16.10;99.90;;;;;;5089592;28;21046;-67
2022/07/03 00:20:11;;;;;;;7.57;7.03;;;16.00;99.90;;;;;;5096904;28;20475;-67
2022/07/03 00:22:43;;;;;;;6.70;6.30;;;16.00;99.90;;;;;;5094871;28;20522;-67
2022/07/03 00:25:13;;;;;;;9.17;5.80;;;16.00;99.90;;;;;;5094091;28;20492;-67
2022/07/03 00:27:45;;;;;;;6.27;5.97;;;16.10;99.90;;;;;;5086844;28;20845;-67
2022/07/03 00:30:12;;;;;;;6.77;6.40;;;16.20;99.90;;;;;;5095390;28;20474;-67
2022/07/03 00:32:42;;;;;;;6.03;5.73;;;16.20;99.90;;;;;;5093734;28;20464;-67
2022/07/03 00:35:10;;;;;;;6.40;6.10;;;16.20;99.90;;;;;;5086767;28;20522;-67
2022/07/03 00:37:37;;;;;;;6.87;6.47;;;16.20;99.90;;;;;;5091402;28;20501;-67
2022/07/03 00:40:05;;;;;;;6.60;6.30;;;16.20;99.90;;;;;;5092327;28;20465;-67
2022/07/03 00:42:32;;;;;;;6.07;5.77;;;16.20;99.90;;;;;;5087291;28;20462;-67
2022/07/03 00:45:01;;;;;;;7.53;7.17;;;16.20;99.90;;;;;;5096114;28;20462;-67
2022/07/03 00:47:28;;;;;;;6.10;5.80;;;16.20;99.90;;;;;;5097469;28;20564;-67
2022/07/03 00:49:57;;;;;;;6.80;6.50;;;16.10;99.90;;;;;;5094869;28;20828;-67
2022/07/03 00:52:24;;;;;;;7.87;7.40;;;16.00;99.90;;;;;;5090705;28;20485;-67
2022/07/03 00:54:54;;;;;;;7.13;6.47;;;15.90;99.90;;;;;;5092082;28;20453;-66
2022/07/03 00:57:23;;;;;;;6.90;6.60;;;15.90;99.90;;;;;;5090016;28;20489;-67
2022/07/03 00:59:51;;;;;;;7.30;6.80;;;15.80;99.90;;;;;;5093909;28;20476;-67
2022/07/03 01:02:34;;;;;;;8.13;7.53;;;15.70;99.90;;;;;;5099581;28;20477;-67
2022/07/03 01:05:17;;;;;;;7.87;6.80;;;15.70;99.90;;;;;;5092662;28;20453;-67
2022/07/03 01:07:52;;;;;;;7.83;7.13;;;15.60;99.90;;;;;;5088826;28;20462;-67
2022/07/03 01:10:38;;;;;;;8.10;7.37;;;15.50;99.90;;;;;;5090772;28;20463;-67
2022/07/03 01:13:12;;;;;;;7.00;6.70;;;15.50;99.90;;;;;;5086536;28;20509;-67
2022/07/03 01:15:47;;;;;;;7.20;6.90;;;15.40;99.90;;;;;;5090791;28;20468;-67
2022/07/03 01:18:28;;;;;;;8.60;7.90;;;15.40;99.90;;;;;;5088175;28;20519;-67
2022/07/03 01:21:06;;;;;;;11.07;7.37;;;15.30;99.90;;;;;;5089650;28;20472;-67
2022/07/03 01:23:56;;;;;;;7.37;7.00;;;15.20;99.90;;;;;;5096098;28;20545;-67
2022/07/03 01:26:28;;;;;;;7.00;6.70;;;15.10;99.90;;;;;;5087783;28;20990;-67
2022/07/03 01:28:59;;;;;;;6.90;6.60;;;14.90;99.90;;;;;;5090188;28;20463;-67
2022/07/03 01:31:27;;;;;;;10.20;6.80;;;14.90;99.90;;;;;;5092668;28;21060;-66
2022/07/03 01:33:54;;;;;;;6.70;6.40;;;14.80;99.90;;;;;;5099639;28;21132;-67
2022/07/03 01:36:25;;;;;;;7.20;6.73;;;14.70;99.90;;;;;;5092981;28;20469;-67
2022/07/03 01:38:53;;;;;;;6.77;6.47;;;14.70;99.90;;;;;;5089174;28;20454;-67
2022/07/03 01:41:23;;;;;;;7.00;6.70;;;14.70;99.90;;;;;;5095762;28;20559;-66
2022/07/03 01:43:57;;;;;;;9.20;7.13;;;14.70;99.90;;;;;;5096927;28;20833;-67
2022/07/03 01:46:29;;;;;;;7.00;6.30;;;14.80;99.90;;;;;;5093023;28;20559;-67
2022/07/03 01:48:56;;;;;;;7.87;6.30;;;14.80;99.90;;;;;;5091235;28;20468;-67
2022/07/03 01:51:24;;;;;;;7.70;7.00;;;14.70;99.90;;;;;;5102482;28;20461;-66
2022/07/03 01:53:52;;;;;;;7.33;6.80;;;14.80;99.90;;;;;;5098127;28;20480;-67
2022/07/03 01:56:21;;;;;;;6.40;6.00;;;14.90;99.90;;;;;;5089577;28;21077;-67
2022/07/03 01:58:48;;;;;;;6.60;6.20;;;15.00;99.90;;;;;;5100118;28;20952;-67
2022/07/03 02:01:22;;;;;;;7.20;5.50;;;15.10;99.90;;;;;;5097076;28;20461;-67
2022/07/03 02:03:59;;;;;;;7.00;6.30;;;15.10;99.90;;;;;;5092146;28;20672;-67
2022/07/03 02:06:35;;;;;;;7.53;6.83;;;15.10;99.90;;;;;;5096860;28;20469;-67
2022/07/03 02:09:05;;;;;;;7.40;6.63;;;15.10;99.90;;;;;;5090762;28;20476;-67
2022/07/03 02:11:36;;;;;;;7.90;6.63;;;15.10;99.90;;;;;;5094034;28;20458;-66
2022/07/03 02:14:13;;;;;;;9.60;6.97;;;15.00;99.90;;;;;;5097195;28;20454;-67
2022/07/03 02:16:51;;;;;;;7.97;6.97;;;14.90;99.90;;;;;;5101297;28;20566;-67
2022/07/03 02:19:19;;;;;;;8.57;7.70;;;14.80;99.90;;;;;;5094408;28;20462;-67
2022/07/03 02:21:49;;;;;;;7.70;7.00;;;14.80;99.90;;;;;;5093704;28;20561;-67
2022/07/03 02:24:20;;;;;;;6.93;6.37;;;14.90;99.90;;;;;;5098309;28;20469;-67
2022/07/03 02:27:02;;;;;;;7.70;7.20;;;14.80;99.90;;;;;;5092335;28;20486;-67
2022/07/03 02:29:34;;;;;;;7.73;6.93;;;14.80;99.90;;;;;;5097708;28;20510;-66
2022/07/03 02:32:04;;;;;;;7.00;6.50;;;14.90;99.90;;;;;;5094949;28;20484;-66
2022/07/03 02:34:34;;;;;;;8.57;7.50;;;14.80;99.90;;;;;;5089480;28;20450;-67
2022/07/03 02:37:12;;;;;;;7.37;6.97;;;14.80;99.90;;;;;;5097934;28;21097;-66
2022/07/03 02:39:46;;;;;;;7.37;6.67;;;14.60;99.90;;;;;;5091780;28;20546;-67
2022/07/03 02:42:23;;;;;;;7.87;7.40;;;14.60;99.90;;;;;;5093943;28;20503;-66
2022/07/03 02:44:53;;;;;;;12.27;7.83;;;14.60;99.90;;;;;;5095993;28;20821;-67
2022/07/03 02:47:28;;;;;;;7.13;6.73;;;14.60;99.90;;;;;;5094077;28;20467;-67
2022/07/03 02:50:04;;;;;;;7.40;6.90;;;14.50;99.90;;;;;;5092935;28;20563;-67
2022/07/03 02:52:43;;;;;;;8.27;7.67;;;14.50;99.90;;;;;;5093004;28;20460;-67
2022/07/03 02:55:21;;;;;;;8.23;7.63;;;14.50;99.90;;;;;;5090089;28;20466;-67
2022/07/03 02:57:56;;;;;;;8.67;7.97;;;14.60;99.90;;;;;;5091842;28;20494;-66
2022/07/03 03:00:25;;;;;;;9.07;8.27;;;14.60;99.90;;;;;;5094189;28;21160;-67
2022/07/03 03:02:57;;;;;;;11.00;8.37;;;14.70;99.90;;;;;;5096214;28;20523;-66
2022/07/03 03:05:30;;;;;;;7.67;7.17;;;14.80;99.90;;;;;;5092398;28;20462;-66
2022/07/03 03:08:06;;;;;;;8.23;7.83;;;14.80;99.90;;;;;;5091486;28;20567;-66
2022/07/03 03:10:35;;;;;;;8.43;7.90;;;14.70;99.90;;;;;;5093157;27;20465;-67
2022/07/03 03:13:05;;;;;;;8.30;7.80;;;14.60;99.90;;;;;;5094227;28;20566;-67
2022/07/03 03:15:33;;;;;;;9.03;8.43;;;14.50;99.90;;;;;;5088238;28;20458;-67
2022/07/03 03:18:05;;;;;;;9.37;8.63;;;14.40;99.90;;;;;;5090170;28;20480;-66
2022/07/03 03:20:34;;;;;;;8.50;8.00;;;14.40;99.90;;;;;;5093106;28;20458;-67
2022/07/03 03:23:14;;;;;;;12.70;8.70;;;14.40;99.90;;;;;;5096229;28;20839;-66
2022/07/03 03:25:41;;;;;;;9.90;8.27;;;14.30;99.90;;;;;;5093085;28;20489;-66
2022/07/03 03:28:08;;;;;;;8.60;8.00;;;14.20;99.90;;;;;;5092094;28;20489;-66
2022/07/03 03:30:36;;;;;;;9.43;7.70;;;14.10;99.90;;;;;;5097548;28;20453;-67
2022/07/03 03:33:09;;;;;;;8.87;8.17;;;14.10;99.90;;;;;;5096919;28;20522;-67
2022/07/03 03:35:37;;;;;;;8.97;8.33;;;14.10;99.90;;;;;;5095925;28;20556;-67
2022/07/03 03:38:04;;;;;;;8.57;7.93;;;14.10;99.90;;;;;;5093957;28;20902;-66
2022/07/03 03:40:33;;;;;;;8.30;7.70;;;14.10;99.90;;;;;;5091713;28;20818;-66
2022/07/03 03:43:00;;;;;;;9.03;8.23;;;14.10;99.90;;;;;;5089408;28;20462;-65
2022/07/03 03:45:27;;;;;;;8.80;7.80;;;14.00;99.90;;;;;;5091439;28;20454;-67
2022/07/03 03:47:55;;;;;;;9.10;8.13;;;14.10;99.90;;;;;;5094278;28;20465;-67
2022/07/03 03:50:23;;;;;;;7.90;7.40;;;14.30;99.90;;;;;;5091407;28;20470;-66
2022/07/03 03:52:51;;;;;;;14.17;8.70;;;14.20;99.90;;;;;;5093177;28;20543;-66
2022/07/03 03:55:17;;;;;;;10.90;7.20;;;14.20;99.90;;;;;;5088828;28;20454;-67
2022/07/03 03:57:44;;;;;;;8.40;7.87;;;14.20;99.90;;;;;;5092401;28;20534;-67
2022/07/03 04:00:12;;;;;;;8.50;7.80;;;14.20;99.90;;;;;;5097338;28;20665;-67
2022/07/03 04:02:39;;;;;;;10.67;9.27;;;14.10;99.90;;;;;;5072397;28;21070;-68
2022/07/03 04:05:07;;;;;;;11.00;8.97;;;14.10;99.90;;;;;;5067627;28;20457;-67
2022/07/03 04:07:35;;;;;;;9.30;8.70;;;14.20;99.90;;;;;;5082169;28;20462;-66
2022/07/03 04:10:02;;;;;;;11.37;10.47;;;14.10;99.90;;;;;;5090385;28;20652;-67
2022/07/03 04:12:29;;;;;;;10.20;9.40;;;14.10;99.90;;;;;;5089476;28;20457;-66
2022/07/03 04:14:58;;;;;;;10.63;9.63;;;14.20;99.90;;;;;;5087998;28;20968;-67
2022/07/03 04:17:25;;;;;;;11.57;9.10;;;14.20;99.90;;;;;;5075790;28;20477;-66
2022/07/03 04:19:52;;;;;;;11.43;9.27;;;14.20;99.90;;;;;;5067667;28;20490;-66
2022/07/03 04:22:19;;;;;;;10.90;9.57;;;14.20;99.90;;;;;;5066813;28;20469;-67
2022/07/03 04:24:47;;;;;;;12.27;9.40;;;14.20;99.90;;;;;;5067612;28;20480;-67
2022/07/03 04:27:13;;;;;;;10.70;9.10;;;14.30;99.90;;;;;;5065659;28;20486;-67
2022/07/03 04:29:40;;;;;;;9.87;9.20;;;14.30;99.90;;;;;;5066783;28;20483;-67
2022/07/03 04:32:08;;;;;;;11.37;9.57;;;14.40;99.90;;;;;;5066006;28;21017;-67
2022/07/03 04:34:34;;;;;;;9.63;9.03;;;14.40;99.90;;;;;;5066052;28;21097;-67
2022/07/03 04:37:02;;;;;;;10.50;9.27;;;14.40;99.90;;;;;;5067480;28;21047;-67
2022/07/03 04:39:29;;;;;;;9.90;9.10;;;14.40;99.90;;;;;;5065979;28;20631;-67
2022/07/03 04:41:57;;;;;;;13.37;9.50;;;14.50;99.90;;;;;;5066496;28;21191;-67
2022/07/03 04:44:24;;;;;;;11.60;10.60;;;14.50;99.90;;;;;;5066311;28;20465;-66
2022/07/03 04:46:51;;;;;;;12.20;9.70;;;14.60;99.90;;;;;;5066929;28;20488;-67
2022/07/03 04:49:18;;;;;;;10.77;9.73;;;14.60;99.90;;;;;;5066229;28;20461;-66
2022/07/03 04:51:44;;;;;;;11.63;10.30;;;14.70;99.90;;;;;;5065795;28;21013;-66
2022/07/03 04:54:11;;;;;;;10.60;9.60;;;14.90;99.90;;;;;;5066587;28;20458;-67
2022/07/03 04:56:38;;;;;;;10.37;9.33;;;15.00;99.90;;;;;;5065980;28;20461;-68
2022/07/03 04:59:06;;;;;;;10.03;9.33;;;15.10;99.90;;;;;;5068230;28;20858;-66
2022/07/03 05:01:33;;;;;;;11.00;10.20;;;15.20;99.90;;;;;;5069738;28;20991;-67
2022/07/03 05:04:00;;;;;;;11.07;10.07;;;15.40;99.90;;;;;;5070778;28;20457;-67
2022/07/03 05:06:26;;;;;;;12.17;10.67;;;15.50;99.90;;;;;;5069440;28;20598;-67
2022/07/03 05:08:53;;;;;;;11.80;10.80;;;15.60;99.90;;;;;;5070548;28;20923;-66
2022/07/03 05:11:20;;;;;;;12.60;11.40;;;15.70;99.90;;;;;;5070045;28;20461;-66
2022/07/03 05:13:47;;;;;;;11.77;10.53;;;15.80;99.90;;;;;;5069640;28;20675;-67
2022/07/03 05:16:15;;;;;;;12.50;11.47;;;15.90;99.90;;;;;;5070108;28;20472;-67
2022/07/03 05:18:41;;;;;;;13.20;11.90;;;16.00;99.90;;;;;;5069553;28;21140;-67
2022/07/03 05:21:08;;;;;;;12.63;11.40;;;16.10;99.90;;;;;;5070265;28;20469;-66
2022/07/03 05:23:35;;;;;;;12.23;11.23;;;16.10;99.90;;;;;;5069916;28;20836;-67
2022/07/03 05:26:02;;;;;;;14.80;12.60;;;16.20;99.90;;;;;;5069665;28;20572;-66
2022/07/03 05:28:29;;;;;;;14.23;12.73;;;16.30;99.90;;;;;;5069782;28;20485;-67
2022/07/03 05:30:55;;;;;;;12.60;11.40;;;16.40;99.90;;;;;;5068896;28;21031;-66
2022/07/03 05:33:24;;;;;;;13.60;12.60;;;16.50;99.90;;;;;;5068767;28;20460;-67
2022/07/03 05:35:51;;;;;;;13.30;12.40;;;16.60;99.90;;;;;;5069068;28;20461;-67
2022/07/03 05:39:31;;;;;;;13.93;13.00;;;16.60;99.90;;;;;;5069015;28;20967;-67
2022/07/03 05:41:05;;;;;;;20.93;14.13;;;16.70;99.90;;;;;;5067752;28;20503;-67
2022/07/03 05:43:32;;;;;;;14.00;13.10;;;16.80;99.90;;;;;;5069019;28;20807;-66
2022/07/03 05:45:59;;;;;;;13.10;12.20;;;16.90;99.90;;;;;;5068413;28;20507;-67
2022/07/03 05:48:27;;;;;;;15.03;13.63;;;17.00;99.90;;;;;;5068678;28;20454;-67
2022/07/03 05:50:54;;;;;;;13.90;12.50;;;17.10;99.90;;;;;;5070613;27;20450;-67
2022/07/03 05:53:21;;;;;;;14.37;13.20;;;17.10;99.90;;;;;;5067671;28;20469;-67
2022/07/03 05:55:48;;;;;;;15.03;13.57;;;17.10;99.90;;;;;;5069327;28;20867;-66
2022/07/03 05:58:15;;;;;;;14.03;12.83;;;17.30;99.90;;;;;;5068885;28;20485;-66
2022/07/03 06:00:42;;;;;;;15.80;14.43;;;17.40;99.90;;;;;;5067954;28;20466;-67
2022/07/03 06:03:09;;;;;;;13.43;12.53;;;17.60;99.90;;;;;;5066404;28;20468;-66
2022/07/03 06:05:38;;;;;;;14.13;13.00;;;17.70;99.90;;;;;;5068773;28;20478;-67
2022/07/03 06:08:06;;;;;;;14.43;13.43;;;17.80;99.90;;;;;;5069786;28;20830;-67
2022/07/03 06:10:34;;;;;;;13.70;12.70;;;17.80;99.90;;;;;;5068502;28;20920;-67
2022/07/03 06:13:01;;;;;;;13.50;12.63;;;17.90;99.90;;;;;;5068302;28;20464;-66
2022/07/03 06:15:28;;;;;;;13.73;12.63;;;17.90;99.90;;;;;;5069768;28;20570;-67
2022/07/03 06:17:54;;;;;;;13.27;12.07;;;18.00;99.90;;;;;;5069083;28;20500;-67
2022/07/03 06:20:21;;;;;;;13.13;12.23;;;18.10;99.90;;;;;;5067468;28;20465;-68
2022/07/03 06:22:50;;;;;;;13.93;12.87;;;18.10;99.90;;;;;;5066544;28;21037;-67
2022/07/03 06:25:17;;;;;;;13.60;12.70;;;18.10;99.90;;;;;;5068037;28;20493;-67
2022/07/03 06:27:44;;;;;;;13.33;12.47;;;18.20;99.90;;;;;;5065857;28;20485;-67
2022/07/03 06:30:11;;;;;;;13.47;12.50;;;18.40;99.90;;;;;;5066092;28;22397;-67
2022/07/03 06:32:39;;;;;;;13.60;12.20;;;18.40;99.90;;;;;;5065924;28;21083;-67
2022/07/03 06:35:07;;;;;;;13.53;12.33;;;18.40;99.90;;;;;;5067603;28;20461;-67
2022/07/03 06:37:33;;;;;;;12.57;11.77;;;18.40;99.90;;;;;;5066074;28;20462;-67
2022/07/03 06:40:02;;;;;;;12.43;11.70;;;18.60;99.90;;;;;;5065166;28;20489;-66
2022/07/03 06:42:29;;;;;;;14.63;13.03;;;18.70;99.90;;;;;;5066068;28;20936;-67
2022/07/03 06:44:55;;;;;;;10.97;10.13;;;18.70;99.90;;;;;;5086517;28;20963;-67
2022/07/03 06:47:22;;;;;;;11.03;10.33;;;18.80;99.90;;;;;;5090889;28;20477;-67
2022/07/03 06:49:49;;;;;;;11.57;10.67;;;18.90;99.90;;;;;;5091760;28;20477;-66
2022/07/03 06:52:16;;;;;;;11.33;10.67;;;19.00;99.90;;;;;;5093118;28;20914;-67
2022/07/03 06:54:43;;;;;;;12.13;11.23;;;19.10;99.90;;;;;;5068432;28;20465;-68
2022/07/03 06:57:11;;;;;;;11.47;10.77;;;19.40;99.90;;;;;;5066190;28;20476;-67
2022/07/03 06:59:39;;;;;;;11.07;10.47;;;19.50;99.90;;;;;;5065943;28;20531;-66
2022/07/03 07:02:06;;;;;;;11.43;10.23;;;19.50;99.90;;;;;;5066496;28;20837;-66
2022/07/03 07:04:33;;;;;;;11.43;10.60;;;19.70;99.90;;;;;;5068813;28;20466;-67
2022/07/03 07:06:59;;;;;;;11.73;10.93;;;19.80;99.90;;;;;;5066688;28;20481;-67
2022/07/03 07:09:26;;;;;;;10.37;9.63;;;19.80;99.90;;;;;;5065131;28;20461;-67
2022/07/03 07:11:53;;;;;;;11.17;10.37;;;19.80;99.90;;;;;;5066197;28;21159;-68
2022/07/03 07:14:21;;;;;;;11.03;10.30;;;19.70;99.90;;;;;;5066358;28;20469;-68
2022/07/03 07:16:48;;;;;;;10.60;10.10;;;19.80;99.90;;;;;;5067022;28;20458;-68
2022/07/03 07:19:15;;;;;;;10.97;10.17;;;19.80;99.90;;;;;;5068127;28;20490;-68
2022/07/03 07:21:42;;;;;;;11.17;10.50;;;19.90;99.90;;;;;;5066352;28;20851;-68
2022/07/03 07:24:09;;;;;;;10.57;9.77;;;20.00;99.90;;;;;;5065544;28;20469;-69
2022/07/03 07:26:36;;;;;;;11.20;10.60;;;20.20;99.90;;;;;;5066073;28;20992;-69
2022/07/03 07:29:02;;;;;;;11.70;11.00;;;20.20;99.90;;;;;;5067047;28;20543;-68
2022/07/03 07:31:31;;;;;;;19.83;11.77;;;20.30;99.90;;;;;;5067416;28;20450;-68
2022/07/03 07:33:57;;;;;;;11.00;10.40;;;20.30;99.90;;;;;;5067416;28;20468;-68
2022/07/03 07:36:24;;;;;;;11.70;11.00;;;20.40;99.90;;;;;;5068436;28;21199;-68
2022/07/03 07:38:51;;;;;;;11.33;10.63;;;20.30;99.90;;;;;;5064897;28;20478;-68
2022/07/03 07:41:18;;;;;;;11.30;10.37;;;20.40;99.90;;;;;;5067280;28;20604;-68
2022/07/03 07:43:45;;;;;;;11.00;10.30;;;20.50;99.90;;;;;;5066806;28;20465;-67
2022/07/03 07:46:11;;;;;;;12.60;11.37;;;20.50;99.90;;;;;;5066307;28;20462;-67
2022/07/03 07:48:40;;;;;;;11.50;10.80;;;20.60;99.90;;;;;;5066381;28;20462;-68
2022/07/03 07:51:06;;;;;;;12.30;11.50;;;20.70;99.90;;;;;;5066712;28;20533;-67
2022/07/03 07:53:33;;;;;;;11.83;11.10;;;20.70;99.90;;;;;;5065610;28;21272;-68
2022/07/03 07:56:00;;;;;;;11.97;11.10;;;20.70;99.90;;;;;;5066582;28;20458;-67
2022/07/03 07:58:27;;;;;;;11.90;11.20;;;20.70;99.90;;;;;;5066805;28;20846;-68
2022/07/03 08:06:24;;;;;;;11.60;10.90;;;20.80;99.90;;;;;;5067658;28;20523;-68
2022/07/03 08:08:51;;;;;;;12.87;11.97;;;21.30;99.90;;;;;;5066043;28;20461;-68
2022/07/03 08:11:19;;;;;;;13.60;12.40;;;21.80;99.90;;;;;;5073927;28;20469;-68
2022/07/03 08:13:46;;;;;;;13.57;12.40;;;22.30;99.90;;;;;;5089677;28;20664;-68
2022/07/03 08:16:13;;;;;;;13.60;12.70;;;22.80;99.90;;;;;;5089491;28;20472;-68
2022/07/03 08:18:41;;;;;;;13.90;12.57;;;23.10;99.90;;;;;;5067199;28;20498;-69
2022/07/03 08:21:08;;;;;;;14.00;13.00;;;23.40;99.90;;;;;;5066615;28;20454;-69
2022/07/03 08:23:35;;;;;;;13.47;12.57;;;23.40;99.90;;;;;;5065161;28;20469;-68
2022/07/03 08:26:02;;;;;;;13.67;12.57;;;23.60;99.90;;;;;;5066466;28;20513;-69
2022/07/03 08:28:29;;;;;;;14.40;13.30;;;24.10;99.90;;;;;;5064992;28;21229;-69
2022/07/03 08:30:56;;;;;;;13.97;12.97;;;24.20;99.90;;;;;;5065157;28;20983;-69
2022/07/03 08:33:23;;;;;;;15.07;14.00;;;24.40;99.90;;;;;;5065101;28;20822;-68
2022/07/03 08:35:51;;;;;;;14.50;13.40;;;24.70;99.90;;;;;;5066033;28;20514;-68
2022/07/03 08:38:18;;;;;;;14.13;13.23;;;25.00;99.90;;;;;;5065173;28;20452;-68
2022/07/03 08:40:47;;;;;;;15.20;14.03;;;25.10;99.90;;;;;;5066467;28;20466;-68
2022/07/03 08:43:15;;;;;;;14.63;13.73;;;25.10;99.90;;;;;;5065782;28;20444;-69
2022/07/03 08:45:42;;;;;;;15.30;14.20;;;25.30;99.90;;;;;;5066222;28;20461;-68
2022/07/03 08:48:10;;;;;;;16.07;14.73;;;25.10;99.90;;;;;;5066957;28;20945;-69
2022/07/03 08:50:38;;;;;;;15.67;14.47;;;25.40;99.90;;;;;;5065511;28;20834;-68
2022/07/03 08:53:07;;;;;;;15.10;14.20;;;25.20;99.90;;;;;;5066725;28;20461;-68
2022/07/03 08:55:34;;;;;;;15.83;14.73;;;25.90;99.90;;;;;;5064961;28;20657;-68
2022/07/03 08:58:02;;;;;;;15.17;13.97;;;25.80;99.90;;;;;;5066166;28;20458;-68
2022/07/03 09:00:30;;;;;;;15.07;13.87;;;26.30;99.90;;;;;;5066025;28;20477;-69
2022/07/03 09:02:58;;;;;;;14.63;13.63;;;26.60;99.90;;;;;;5066217;28;20465;-68
2022/07/03 09:05:25;;;;;;;14.80;13.97;;;26.90;97.50;;;;;;5065672;28;22910;-68
2022/07/03 09:07:53;;;;;;;15.23;14.43;;;27.40;96.10;;;;;;5066304;28;20705;-68
2022/07/03 09:10:22;;;;;;;17.13;15.20;;;27.30;94.90;;;;;;5089870;28;21011;-67
2022/07/03 09:12:49;;;;;;;15.20;14.50;;;26.70;94.70;;;;;;5089865;28;20960;-67
2022/07/03 09:15:17;;;;;;;14.40;13.60;;;27.20;93.90;;;;;;5094232;28;20493;-68
2022/07/03 09:17:57;;;;;;;15.73;14.47;;;27.40;94.30;;;;;;5066144;28;20470;-68
2022/07/03 09:20:29;;;;;;;14.70;13.90;;;27.60;93.00;;;;;;5065867;28;20493;-68
2022/07/03 09:23:12;;;;;;;14.43;13.57;;;27.20;93.10;;;;;;5064489;28;20540;-67
2022/07/03 09:25:56;;;;;;;14.43;13.53;;;27.20;93.80;;;;;;5064782;28;20554;-68
2022/07/03 09:28:24;;;;;;;13.83;13.00;;;27.40;92.90;;;;;;5062615;28;20492;-68
2022/07/03 09:31:01;;;;;;;14.00;13.13;;;27.20;93.30;;;;;;5063008;28;20633;-68
2022/07/03 09:33:29;;;;;;;13.77;12.77;;;27.80;91.80;;;;;;5063138;28;20854;-68
2022/07/03 09:35:57;;;;;;;13.80;12.80;;;28.10;90.30;;;;;;5064127;28;20472;-69
2022/07/03 09:38:24;;;;;;;13.90;13.10;;;27.80;91.50;;;;;;5064454;28;20527;-68
2022/07/03 09:40:54;;;;;;;15.37;13.83;;;27.80;88.40;;;;;;5065026;28;20879;-68
2022/07/03 09:43:26;;;;;;;14.20;13.20;;;28.00;88.70;;;;;;5064975;28;20462;-68
2022/07/03 09:45:55;;;;;;;14.10;13.27;;;28.00;87.70;;;;;;5065680;28;20553;-68
2022/07/03 09:48:30;;;;;;;14.07;13.07;;;28.00;87.70;;;;;;5068751;28;20958;-68
2022/07/03 09:51:11;;;;;;;14.00;13.30;;;28.30;85.60;;;;;;5067916;28;20488;-69
2022/07/03 09:53:46;;;;;;;14.23;13.17;;;28.70;84.30;;;;;;5068015;28;20470;-68
2022/07/03 09:56:16;;;;;;;14.30;13.60;;;29.30;83.80;;;;;;5068623;28;20563;-68
2022/07/03 09:58:59;;;;;;;15.00;13.97;;;29.30;81.50;;;;;;5069014;28;20603;-68
2022/07/03 10:01:26;;;;;;;13.10;12.47;;;29.00;77.50;;;;;;5068629;28;20552;-68
2022/07/03 10:03:52;;;;;;;14.70;13.80;;;29.00;77.30;;;;;;5067460;28;20468;-69
2022/07/03 10:06:19;;;;;;;13.23;12.53;;;28.90;79.40;;;;;;5069083;28;21585;-69
2022/07/03 10:08:50;;;;;;;14.87;13.77;;;28.30;81.30;;;;;;5068283;28;20457;-68
2022/07/03 10:11:18;;;;;;;15.00;14.10;;;28.20;79.60;;;;;;5068248;28;21091;-68
2022/07/03 10:13:45;;;;;;;13.73;12.97;;;28.60;78.30;;;;;;5067973;28;20897;-68
2022/07/03 10:16:12;;;;;;;14.50;13.80;;;29.10;76.40;;;;;;5068168;28;20831;-68
2022/07/03 10:18:48;;;;;;;13.47;12.67;;;29.40;78.40;;;;;;5085843;28;20466;-68
2022/07/03 10:21:16;;;;;;;13.57;12.73;;;29.30;76.10;;;;;;5096834;28;20548;-68
2022/07/03 10:23:45;;;;;;;13.43;12.63;;;29.00;75.90;;;;;;5092806;28;20462;-68
2022/07/03 10:26:12;;;;;;;12.90;12.30;;;28.70;78.60;;;;;;5081153;28;21288;-69
2022/07/03 10:28:41;;;;;;;13.43;12.53;;;28.50;77.10;;;;;;5065819;28;20481;-68
2022/07/03 10:31:09;;;;;;;13.40;12.70;;;28.70;77.90;;;;;;5066907;28;20458;-68
2022/07/03 10:33:37;;;;;;;13.70;12.90;;;28.80;75.70;;;;;;5067558;28;20824;-69
2022/07/03 10:36:06;;;;;;;13.83;13.13;;;29.00;74.40;;;;;;5068379;28;20473;-68
2022/07/03 10:38:39;;;;;;;13.93;12.63;;;28.90;77.30;;;;;;5068668;28;20476;-69
2022/07/03 10:46:41;;;;;;;13.80;13.20;;;29.10;73.10;;;;;;5067652;28;20903;-68
2022/07/03 10:49:10;;;;;;;13.43;12.77;;;29.50;71.20;;;;;;5068558;28;20470;-68
2022/07/03 10:51:54;;;;;;;13.60;12.90;;;30.10;69.70;;;;;;5067746;28;20499;-68
2022/07/03 10:54:22;;;;;;;13.20;12.60;;;30.70;69.40;;;;;;5067535;28;20572;-69
2022/07/03 10:57:18;;;;;;;14.33;13.07;;;30.40;68.50;;;;;;5067591;28;21306;-69
2022/07/03 11:00:01;;;;;;;13.40;12.80;;;30.60;68.80;;;;;;5067216;28;20485;-67
2022/07/03 11:02:32;;;;;;;13.37;12.57;;;31.00;68.90;;;;;;5067798;28;20477;-69
2022/07/03 11:05:10;;;;;;;13.10;12.40;;;31.20;66.60;;;;;;5066318;28;20462;-68
2022/07/03 11:07:44;;;;;;;14.30;13.50;;;30.90;65.00;;;;;;5067183;28;20496;-68
2022/07/03 11:10:31;;;;;;;13.63;13.03;;;30.20;63.30;;;;;;5066712;28;20642;-69
2022/07/03 11:12:58;;;;;;;13.60;12.90;;;30.60;65.20;;;;;;5066671;28;21502;-69
2022/07/03 11:15:31;;;;;;;13.23;12.43;;;30.70;66.20;;;;;;5067192;28;20469;-69
2022/07/03 11:18:27;;;;;;;13.60;12.80;;;30.80;62.00;;;;;;5067698;28;20473;-69
2022/07/03 11:21:30;;;;;;;13.10;12.20;;;31.10;60.20;;;;;;5020209;28;20497;-68
2022/07/03 11:24:31;;;;;;;13.10;12.50;;;31.30;62.60;;;;;;5068731;28;20964;-69
2022/07/03 11:27:21;;;;;;;13.80;12.83;;;30.90;59.80;;;;;;5092546;28;20898;-68
2022/07/03 11:29:57;;;;;;;13.43;12.63;;;31.20;61.20;;;;;;5093348;28;21099;-69
2022/07/03 11:32:49;;;;;;;12.93;12.33;;;31.30;60.10;;;;;;5066727;28;20474;-69
2022/07/03 11:35:46;;;;;;;27.47;13.33;;;31.50;60.30;;;;;;5066973;28;20531;-69
2022/07/03 11:38:15;;;;;;;14.57;13.30;;;31.10;62.30;;;;;;5066753;28;20984;-68
2022/07/03 11:40:44;;;;;;;13.67;12.30;;;30.80;60.70;;;;;;5066595;28;20578;-69
2022/07/03 11:43:12;;;;;;;13.23;12.33;;;30.90;60.00;;;;;;5062257;28;21380;-68
2022/07/03 11:45:39;;;;;;;13.40;12.40;;;31.20;61.20;;;;;;5065809;28;20833;-70
2022/07/03 11:48:09;;;;;;;12.90;12.30;;;31.30;59.40;;;;;;5065912;28;20474;-68
2022/07/03 11:50:40;;;;;;;12.30;11.80;;;31.50;59.80;;;;;;5065985;28;20462;-69
2022/07/03 11:53:32;;;;;;;13.17;12.17;;;31.50;58.30;;;;;;5065868;28;20864;-68
2022/07/03 11:56:02;;;;;;;13.30;12.30;;;31.10;60.30;;;;;;5056403;28;21038;-69
2022/07/03 11:58:42;;;;;;;12.23;11.73;;;31.40;57.50;;;;;;5066113;28;20462;-69
2022/07/03 12:01:10;;;;;;;13.23;12.30;;;31.50;58.70;;;;;;5066111;28;21545;-69
2022/07/03 12:03:38;;;;;;;13.20;12.30;;;31.90;57.70;;;;;;5065207;28;20539;-69
2022/07/03 12:06:05;;;;;;;12.33;11.83;;;31.60;57.80;;;;;;5067192;28;20468;-68
2022/07/03 12:08:34;;;;;;;13.33;12.33;;;31.60;57.70;;;;;;5065638;28;20466;-69
2022/07/03 12:11:04;;;;;;;13.40;12.60;;;31.70;59.00;;;;;;5065019;28;20466;-69
2022/07/03 12:13:32;;;;;;;13.17;12.37;;;32.00;58.90;;;;;;5066026;28;20559;-69
2022/07/03 12:16:09;;;;;;;12.33;11.60;;;32.40;55.30;;;;;;5066979;28;20457;-70
2022/07/03 12:18:50;;;;;;;13.13;12.00;;;32.70;57.00;;;;;;5065474;28;20838;-69
2022/07/03 12:21:17;;;;;;;12.30;11.80;;;31.90;55.90;;;;;;5065901;28;21264;-68
2022/07/03 12:23:46;;;;;;;12.70;11.90;;;31.40;57.80;;;;;;5064341;28;21106;-68
2022/07/03 12:26:14;;;;;;;12.23;11.53;;;31.40;57.80;;;;;;5064767;28;21007;-69
2022/07/03 12:28:42;;;;;;;12.43;11.73;;;30.90;57.90;;;;;;5065977;28;21152;-69
2022/07/03 12:31:09;;;;;;;12.80;12.17;;;30.20;59.40;;;;;;5065476;28;20453;-69
2022/07/03 12:33:37;;;;;;;12.07;11.40;;;30.10;59.30;;;;;;5064942;28;20474;-68
2022/07/03 12:36:20;;;;;;;12.00;11.50;;;30.80;58.50;;;;;;5063998;28;20465;-69
2022/07/03 12:38:49;;;;;;;12.80;11.80;;;30.40;57.90;;;;;;5066297;27;20457;-69
2022/07/03 12:41:16;;;;;;;12.67;12.07;;;31.00;59.20;;;;;;5065517;28;20501;-69
2022/07/03 12:43:46;;;;;;;11.77;11.17;;;30.80;58.00;;;;;;5065748;28;20481;-69
2022/07/03 12:46:18;;;;;;;12.40;11.90;;;30.50;59.10;;;;;;5065691;28;20466;-68
2022/07/03 12:48:52;;;;;;;12.37;11.77;;;30.70;58.90;;;;;;5065709;28;20458;-70
2022/07/03 12:51:39;;;;;;;12.17;11.53;;;30.80;57.70;;;;;;5063461;28;20530;-69
2022/07/03 12:54:06;;;;;;;12.93;12.23;;;31.30;57.40;;;;;;5067863;28;21005;-68
2022/07/03 12:56:33;;;;;;;13.33;12.30;;;31.70;56.50;;;;;;5065612;28;20465;-69
2022/07/03 13:02:03;;;;;;;13.20;12.50;;;31.00;58.20;;;;;;5066301;28;20482;-69